Time;durP1;ratioP1;P1;durP2;ratioP2;P2;SDS_P1;SDS_P2;PMS_P1;PMS_P2;Temp;Humidity;BMP_temperature;BMP_pressure;BME280_temperature;BME280_humidity;BME280_pressure;Samples;Min_cycle;Max_cycle;Signal;HPM_P1;HPM_P2
2021/03/14 00:02:12;;;;;;;71.22;43.72;;;7.80;99.90;;;;;;4969814;28;20049;-75
2021/03/14 00:04:38;;;;;;;72.38;41.53;;;7.70;99.90;;;;;;4943981;28;20055;-75
2021/03/14 00:07:05;;;;;;;72.70;41.92;;;7.50;99.90;;;;;;4961344;28;20059;-74
2021/03/14 00:09:31;;;;;;;74.45;43.67;;;7.60;99.90;;;;;;4962945;28;20078;-77
2021/03/14 00:11:56;;;;;;;66.70;41.92;;;7.60;99.90;;;;;;4960556;28;20082;-75
2021/03/14 00:14:22;;;;;;;69.10;41.35;;;7.60;99.90;;;;;;4962388;28;20031;-76
2021/03/14 00:16:48;;;;;;;78.20;44.83;;;7.30;99.90;;;;;;4962131;28;20023;-76
2021/03/14 00:19:14;;;;;;;67.93;41.28;;;7.30;99.90;;;;;;4961345;28;20019;-75
2021/03/14 00:21:40;;;;;;;70.68;43.13;;;7.30;99.90;;;;;;4955581;28;20046;-76
2021/03/14 00:24:06;;;;;;;70.03;41.65;;;7.40;99.90;;;;;;4954069;29;20066;-76
2021/03/14 00:26:32;;;;;;;70.82;40.65;;;7.50;99.90;;;;;;4957863;28;20031;-75
2021/03/14 00:28:57;;;;;;;66.65;41.67;;;7.20;99.90;;;;;;4962549;28;20074;-76
2021/03/14 00:31:23;;;;;;;68.22;40.63;;;7.00;99.90;;;;;;4960202;28;20470;-77
2021/03/14 00:33:49;;;;;;;69.40;39.33;;;7.10;99.90;;;;;;4963675;28;20034;-78
2021/03/14 00:36:15;;;;;;;58.20;34.97;;;6.70;99.90;;;;;;4961423;28;20428;-77
2021/03/14 00:38:41;;;;;;;55.30;33.95;;;7.10;99.90;;;;;;4963332;28;20025;-77
2021/03/14 00:41:07;;;;;;;59.53;34.25;;;7.10;99.90;;;;;;4963003;28;20030;-77
2021/03/14 00:43:32;;;;;;;62.85;36.08;;;6.90;99.90;;;;;;4962479;28;20087;-76
2021/03/14 00:45:58;;;;;;;67.55;35.45;;;6.90;99.90;;;;;;4953505;28;20167;-78
2021/03/14 00:48:24;;;;;;;54.72;36.35;;;6.30;99.90;;;;;;4953877;29;20031;-79
2021/03/14 00:50:50;;;;;;;54.17;34.50;;;6.30;99.90;;;;;;4953561;29;20049;-78
2021/03/14 00:53:15;;;;;;;65.60;34.22;;;6.00;99.90;;;;;;4952441;29;20024;-76
2021/03/14 00:55:41;;;;;;;58.80;35.60;;;6.10;99.90;;;;;;4953844;29;20171;-76
2021/03/14 00:58:07;;;;;;;61.60;34.05;;;6.50;99.90;;;;;;4956453;28;20035;-76
2021/03/14 01:00:33;;;;;;;59.78;35.60;;;6.60;99.90;;;;;;4957806;29;20023;-79
2021/03/14 01:02:58;;;;;;;60.42;37.00;;;6.60;99.90;;;;;;4956862;28;20135;-77
2021/03/14 01:05:24;;;;;;;63.72;36.35;;;6.80;99.90;;;;;;4957357;29;20032;-76
2021/03/14 01:07:50;;;;;;;62.85;37.95;;;6.90;99.90;;;;;;4963577;28;20057;-75
2021/03/14 01:10:16;;;;;;;56.03;34.50;;;7.00;99.90;;;;;;4966232;28;20034;-78
2021/03/14 01:12:42;;;;;;;55.90;32.88;;;6.80;99.90;;;;;;4964411;28;20102;-77
2021/03/14 01:15:14;;;;;;;56.03;32.28;;;6.80;99.90;;;;;;4966397;28;20103;-78
2021/03/14 01:17:40;;;;;;;64.75;35.05;;;6.50;99.90;;;;;;4964253;28;20015;-78
2021/03/14 01:20:10;;;;;;;57.45;36.78;;;6.80;99.90;;;;;;4965194;28;20090;-79
2021/03/14 01:22:36;;;;;;;58.50;35.50;;;6.90;99.90;;;;;;4965071;28;20468;-78
2021/03/14 01:25:03;;;;;;;57.17;32.42;;;6.90;99.90;;;;;;4966473;28;20027;-80
2021/03/14 01:27:29;;;;;;;57.85;36.92;;;6.90;99.90;;;;;;4974999;28;20038;-75
2021/03/14 01:29:55;;;;;;;55.17;35.28;;;6.70;99.90;;;;;;4976219;28;20420;-78
2021/03/14 01:32:20;;;;;;;59.17;35.88;;;6.70;99.90;;;;;;4975673;28;20499;-78
2021/03/14 01:34:48;;;;;;;56.40;32.97;;;6.80;99.90;;;;;;4976965;28;20034;-76
2021/03/14 01:37:18;;;;;;;55.53;33.90;;;6.80;99.90;;;;;;4958774;28;20485;-76
2021/03/14 01:39:45;;;;;;;54.25;33.28;;;6.80;99.90;;;;;;4957030;29;20058;-76
2021/03/14 01:42:11;;;;;;;58.90;35.85;;;6.70;99.90;;;;;;4956153;29;20123;-75
2021/03/14 01:44:37;;;;;;;51.90;31.70;;;6.70;99.90;;;;;;4956287;29;20389;-79
2021/03/14 01:47:04;;;;;;;46.15;28.08;;;6.80;99.90;;;;;;4956334;29;20477;-77
2021/03/14 01:49:30;;;;;;;46.10;30.40;;;6.60;99.90;;;;;;4956886;29;20404;-76
2021/03/14 01:51:56;;;;;;;56.03;31.02;;;6.40;99.90;;;;;;4956510;29;20042;-76
2021/03/14 01:54:22;;;;;;;45.70;30.38;;;6.10;99.90;;;;;;4956468;29;20027;-78
2021/03/14 01:56:48;;;;;;;46.30;30.65;;;6.00;99.90;;;;;;4956398;29;20023;-79
2021/03/14 01:59:15;;;;;;;45.17;28.75;;;6.30;99.90;;;;;;4956839;29;20027;-75
2021/03/14 02:01:42;;;;;;;43.15;26.95;;;6.10;99.90;;;;;;4955912;29;20153;-79
2021/03/14 02:04:08;;;;;;;44.03;25.75;;;6.10;99.90;;;;;;4956377;28;20436;-75
2021/03/14 02:06:34;;;;;;;39.30;25.25;;;6.00;99.90;;;;;;4956433;29;20521;-76
2021/03/14 02:09:00;;;;;;;43.17;25.48;;;6.10;99.90;;;;;;4955608;28;20031;-75
2021/03/14 02:11:28;;;;;;;41.90;24.38;;;6.00;99.90;;;;;;4939322;29;20031;-76
2021/03/14 02:13:58;;;;;;;41.20;26.55;;;6.20;99.90;;;;;;4955898;29;20111;-77
2021/03/14 02:16:30;;;;;;;44.83;28.77;;;6.10;99.90;;;;;;4956079;29;20054;-76
2021/03/14 02:18:59;;;;;;;44.72;26.13;;;5.70;99.90;;;;;;4955630;29;20035;-76
2021/03/14 02:21:26;;;;;;;42.30;25.95;;;5.50;99.90;;;;;;4955858;29;20501;-78
2021/03/14 02:24:05;;;;;;;41.90;26.20;;;5.90;99.90;;;;;;4955052;29;20027;-75
2021/03/14 02:26:36;;;;;;;44.17;26.13;;;6.20;99.90;;;;;;4955882;29;20032;-74
2021/03/14 02:29:03;;;;;;;48.10;26.35;;;6.40;99.90;;;;;;4955284;29;20082;-76
2021/03/14 02:31:30;;;;;;;44.50;27.17;;;6.20;99.90;;;;;;4955771;29;20106;-76
2021/03/14 02:34:00;;;;;;;45.72;27.52;;;5.80;99.90;;;;;;4955445;29;20043;-74
2021/03/14 02:36:26;;;;;;;47.40;29.10;;;6.00;99.90;;;;;;4965662;28;20042;-77
2021/03/14 02:38:52;;;;;;;48.00;29.58;;;6.30;99.90;;;;;;4975042;28;20031;-74
2021/03/14 02:41:18;;;;;;;47.03;31.05;;;6.40;99.90;;;;;;4975215;28;20026;-74
2021/03/14 02:43:45;;;;;;;48.85;30.13;;;6.50;99.90;;;;;;4974246;28;20385;-74
2021/03/14 02:46:12;;;;;;;46.53;29.77;;;6.50;99.90;;;;;;4975075;28;20070;-78
2021/03/14 02:48:40;;;;;;;44.33;30.00;;;6.40;99.90;;;;;;4973504;28;20050;-76
2021/03/14 02:51:07;;;;;;;47.00;30.30;;;6.30;99.90;;;;;;4975268;28;20023;-76
2021/03/14 02:53:33;;;;;;;48.30;30.25;;;5.90;99.90;;;;;;4957621;28;20035;-75
2021/03/14 02:56:00;;;;;;;48.60;27.75;;;5.70;99.90;;;;;;4974716;28;20019;-75
2021/03/14 02:58:26;;;;;;;44.92;29.13;;;5.60;99.90;;;;;;4974767;28;20030;-77
2021/03/14 03:00:53;;;;;;;41.85;27.15;;;5.50;99.90;;;;;;4973250;28;20593;-76
2021/03/14 03:03:25;;;;;;;43.90;26.58;;;5.00;99.90;;;;;;4973864;28;20038;-78
2021/03/14 03:05:59;;;;;;;37.38;23.60;;;4.90;99.90;;;;;;4974080;28;20499;-75
2021/03/14 03:08:27;;;;;;;37.50;23.17;;;5.50;99.90;;;;;;4973163;28;20031;-78
2021/03/14 03:10:54;;;;;;;35.85;22.90;;;5.70;99.90;;;;;;4974487;28;20023;-75
2021/03/14 03:13:21;;;;;;;29.02;20.08;;;5.30;99.90;;;;;;4974166;28;20035;-77
2021/03/14 03:15:47;;;;;;;28.65;19.30;;;5.40;99.90;;;;;;4974368;28;20027;-75
2021/03/14 03:18:15;;;;;;;32.75;20.73;;;5.50;99.90;;;;;;4974004;28;20038;-78
2021/03/14 03:20:42;;;;;;;31.27;20.63;;;5.80;99.90;;;;;;4974274;28;20162;-78
2021/03/14 03:23:08;;;;;;;33.60;21.70;;;6.00;99.90;;;;;;4973708;28;20509;-78
2021/03/14 03:25:34;;;;;;;34.63;20.75;;;6.10;99.90;;;;;;4974194;28;20023;-77
2021/03/14 03:28:00;;;;;;;29.58;19.45;;;6.00;99.90;;;;;;4973801;28;20488;-78
2021/03/14 03:30:28;;;;;;;24.45;16.80;;;5.90;99.90;;;;;;4974034;28;20065;-76
2021/03/14 03:32:54;;;;;;;23.90;15.90;;;5.40;99.90;;;;;;4974275;28;20042;-76
2021/03/14 03:35:21;;;;;;;27.02;16.80;;;5.10;99.90;;;;;;4973715;28;20073;-75
2021/03/14 03:37:49;;;;;;;24.08;16.42;;;5.00;99.90;;;;;;4955184;28;20039;-77
2021/03/14 03:40:18;;;;;;;24.38;16.42;;;4.80;99.90;;;;;;4954076;29;20091;-74
2021/03/14 03:43:04;;;;;;;28.05;17.40;;;4.50;99.90;;;;;;4954171;29;20075;-76
2021/03/14 03:45:33;;;;;;;24.35;16.70;;;4.40;99.90;;;;;;4953801;28;20047;-74
2021/03/14 03:48:00;;;;;;;30.07;16.83;;;4.20;99.90;;;;;;4954793;29;20426;-75
2021/03/14 03:50:27;;;;;;;24.63;17.25;;;4.30;99.90;;;;;;4954360;29;20085;-77
2021/03/14 03:52:55;;;;;;;26.85;18.13;;;4.20;99.90;;;;;;4954877;29;20162;-78
2021/03/14 03:55:23;;;;;;;25.77;16.70;;;4.60;99.90;;;;;;4954063;29;20023;-76
2021/03/14 03:57:49;;;;;;;26.98;17.73;;;5.00;99.90;;;;;;4954712;29;20633;-74
2021/03/14 04:00:18;;;;;;;32.83;19.90;;;5.30;99.90;;;;;;4953591;29;20039;-75
2021/03/14 04:02:45;;;;;;;36.13;21.83;;;5.40;99.90;;;;;;4936507;29;20093;-76
2021/03/14 04:05:12;;;;;;;34.63;22.52;;;5.60;99.90;;;;;;4954140;29;20118;-75
2021/03/14 04:07:40;;;;;;;37.75;24.42;;;5.50;99.90;;;;;;4954274;29;20027;-77
2021/03/14 04:10:09;;;;;;;44.35;28.38;;;5.50;99.90;;;;;;4954068;29;20023;-75
2021/03/14 04:12:38;;;;;;;45.03;28.23;;;5.40;99.90;;;;;;4953892;28;20037;-76
2021/03/14 04:15:07;;;;;;;49.20;29.65;;;5.30;99.90;;;;;;4953689;29;20024;-75
2021/03/14 04:17:34;;;;;;;49.42;29.83;;;5.20;99.90;;;;;;4953773;29;20034;-75
2021/03/14 04:20:01;;;;;;;53.70;31.80;;;5.30;99.90;;;;;;4953700;29;20031;-76
2021/03/14 04:22:29;;;;;;;52.33;31.42;;;5.40;99.90;;;;;;4936830;29;20037;-76
2021/03/14 04:24:56;;;;;;;52.60;32.45;;;5.40;99.90;;;;;;4953762;29;20035;-75
2021/03/14 04:27:25;;;;;;;59.92;33.35;;;5.50;99.90;;;;;;4953173;29;20110;-77
2021/03/14 04:29:53;;;;;;;48.40;30.52;;;5.40;99.90;;;;;;4953620;29;20026;-76
2021/03/14 04:32:22;;;;;;;52.17;31.08;;;5.20;99.90;;;;;;4952918;28;20460;-74
2021/03/14 04:34:49;;;;;;;59.80;33.40;;;5.30;99.90;;;;;;4953133;29;20034;-77
2021/03/14 04:37:16;;;;;;;57.10;31.45;;;5.20;99.90;;;;;;4953676;29;20035;-74
2021/03/14 04:39:42;;;;;;;55.50;34.00;;;5.20;99.90;;;;;;4953189;29;20392;-76
2021/03/14 04:42:08;;;;;;;56.53;34.55;;;5.10;99.90;;;;;;4953578;29;20039;-76
2021/03/14 04:44:36;;;;;;;58.22;33.22;;;5.10;99.90;;;;;;4952853;29;20043;-75
2021/03/14 04:47:03;;;;;;;50.60;32.78;;;5.20;99.90;;;;;;4953617;29;20036;-75
2021/03/14 04:49:30;;;;;;;56.67;32.45;;;5.20;99.90;;;;;;4953326;29;20031;-75
2021/03/14 04:51:56;;;;;;;57.15;33.78;;;5.10;99.90;;;;;;4953420;29;20038;-74
2021/03/14 04:54:23;;;;;;;52.13;33.65;;;5.20;99.90;;;;;;4953260;29;20060;-75
2021/03/14 04:56:50;;;;;;;57.05;33.13;;;5.20;99.90;;;;;;4953927;29;20377;-76
2021/03/14 04:59:17;;;;;;;63.22;34.10;;;5.30;99.90;;;;;;4953576;29;20060;-75
2021/03/14 05:01:45;;;;;;;55.90;32.35;;;5.30;99.90;;;;;;4953365;29;20035;-78
2021/03/14 05:04:14;;;;;;;54.70;31.88;;;5.30;99.90;;;;;;4953320;28;20038;-74
2021/03/14 05:06:44;;;;;;;50.75;30.60;;;5.10;99.90;;;;;;4953291;29;20031;-77
2021/03/14 05:09:13;;;;;;;48.17;29.65;;;4.80;99.90;;;;;;4953799;29;20019;-77
2021/03/14 05:11:44;;;;;;;53.20;30.52;;;5.00;99.90;;;;;;4952981;29;20457;-77
2021/03/14 05:14:12;;;;;;;41.22;23.65;;;5.10;99.90;;;;;;4953753;29;20103;-75
2021/03/14 05:16:40;;;;;;;36.47;21.35;;;4.90;99.90;;;;;;4952903;29;20047;-76
2021/03/14 05:19:08;;;;;;;36.95;21.67;;;5.00;99.90;;;;;;4953532;29;20363;-79
2021/03/14 05:21:35;;;;;;;31.30;21.20;;;4.50;99.90;;;;;;4953234;29;20023;-78
2021/03/14 05:24:03;;;;;;;33.97;20.92;;;4.40;99.90;;;;;;4952688;29;20032;-76
2021/03/14 05:26:30;;;;;;;28.10;18.60;;;4.60;99.90;;;;;;4953414;29;20027;-75
2021/03/14 05:28:56;;;;;;;29.90;19.02;;;4.90;99.90;;;;;;4953634;29;20063;-77
2021/03/14 05:31:33;;;;;;;33.70;19.45;;;4.80;99.90;;;;;;4952761;29;20023;-77
2021/03/14 05:34:03;;;;;;;32.17;20.42;;;4.70;99.90;;;;;;4953359;29;20050;-76
2021/03/14 05:36:30;;;;;;;30.98;19.33;;;4.70;99.90;;;;;;4958411;28;20029;-75
2021/03/14 05:38:58;;;;;;;29.30;19.70;;;5.10;99.90;;;;;;4973045;28;20370;-76
2021/03/14 05:41:24;;;;;;;28.70;19.02;;;5.30;99.90;;;;;;4972706;28;20054;-77
2021/03/14 05:43:50;;;;;;;33.75;21.23;;;5.50;99.90;;;;;;4974550;28;20026;-76
2021/03/14 05:46:17;;;;;;;42.08;23.33;;;5.60;99.90;;;;;;4975614;28;20428;-76
2021/03/14 05:48:44;;;;;;;44.45;25.48;;;5.70;99.90;;;;;;4976102;28;20441;-75
2021/03/14 05:51:10;;;;;;;54.00;27.55;;;5.80;99.90;;;;;;4975377;28;20074;-79
2021/03/14 05:53:40;;;;;;;40.75;26.10;;;5.90;99.90;;;;;;4975348;28;20042;-76
2021/03/14 05:56:08;;;;;;;46.83;28.10;;;5.50;99.90;;;;;;4975554;28;20030;-74
2021/03/14 05:58:36;;;;;;;46.75;29.20;;;5.00;99.90;;;;;;4976388;28;20241;-76
2021/03/14 06:01:06;;;;;;;45.97;29.27;;;4.20;99.90;;;;;;4973718;28;20033;-76
2021/03/14 06:03:32;;;;;;;40.38;26.08;;;4.50;99.90;;;;;;4975796;28;20075;-75
2021/03/14 06:05:58;;;;;;;43.47;26.08;;;4.50;99.90;;;;;;4975574;28;20027;-76
2021/03/14 06:08:24;;;;;;;43.05;25.80;;;4.80;99.90;;;;;;4976212;28;20089;-76
2021/03/14 06:10:50;;;;;;;38.00;25.25;;;5.00;99.90;;;;;;4974969;28;20077;-74
2021/03/14 06:13:16;;;;;;;37.63;24.48;;;5.40;99.90;;;;;;4975818;28;20034;-76
2021/03/14 06:15:42;;;;;;;34.80;24.25;;;5.80;99.90;;;;;;4975451;28;20114;-76
2021/03/14 06:18:08;;;;;;;36.30;22.70;;;6.00;99.90;;;;;;4975324;28;20118;-76
2021/03/14 06:20:41;;;;;;;37.22;23.95;;;6.20;99.90;;;;;;4973718;28;20061;-76
2021/03/14 06:23:12;;;;;;;39.10;24.15;;;6.40;99.90;;;;;;4975981;28;20082;-77
2021/03/14 06:25:42;;;;;;;45.03;23.83;;;6.50;99.90;;;;;;4975412;28;20026;-76
2021/03/14 06:28:08;;;;;;;36.47;23.13;;;6.60;99.90;;;;;;4976036;28;20027;-76
2021/03/14 06:30:35;;;;;;;40.05;23.83;;;6.60;99.90;;;;;;4975293;28;20019;-77
2021/03/14 06:33:11;;;;;;;35.78;22.42;;;6.80;99.90;;;;;;4976067;28;20031;-77
2021/03/14 06:35:47;;;;;;;37.30;22.45;;;6.80;99.90;;;;;;4975573;28;20019;-75
2021/03/14 06:38:34;;;;;;;32.63;21.88;;;6.90;99.90;;;;;;4957473;28;20031;-75
2021/03/14 06:41:02;;;;;;;33.50;21.92;;;6.80;99.90;;;;;;4955274;29;20063;-75
2021/03/14 06:43:35;;;;;;;37.22;21.95;;;6.80;99.90;;;;;;4955602;29;20042;-74
2021/03/14 06:46:02;;;;;;;35.00;23.13;;;6.90;99.90;;;;;;4954840;29;20058;-76
2021/03/14 06:48:29;;;;;;;36.83;23.10;;;7.00;99.90;;;;;;4955375;29;20039;-75
2021/03/14 06:50:55;;;;;;;38.83;22.75;;;6.90;99.90;;;;;;4955213;29;20078;-75
2021/03/14 06:53:24;;;;;;;35.72;23.58;;;7.10;99.90;;;;;;4955319;29;20027;-75
2021/03/14 06:55:52;;;;;;;31.55;22.73;;;7.10;99.90;;;;;;4954317;28;20074;-74
2021/03/14 06:58:30;;;;;;;35.28;23.15;;;7.20;99.90;;;;;;4955217;29;20107;-73
2021/03/14 07:01:25;;;;;;;36.63;23.88;;;7.20;99.90;;;;;;4953493;29;20039;-76
2021/03/14 07:03:55;;;;;;;35.20;23.17;;;7.10;99.90;;;;;;4938654;29;20055;-75
2021/03/14 07:06:23;;;;;;;35.20;23.83;;;7.30;99.90;;;;;;4955372;29;20058;-77
2021/03/14 07:09:12;;;;;;;40.25;23.63;;;7.30;99.90;;;;;;4955734;29;20054;-75
2021/03/14 07:11:43;;;;;;;34.88;22.92;;;7.40;99.90;;;;;;4954275;29;20031;-74
2021/03/14 07:14:13;;;;;;;34.05;22.80;;;7.60;99.90;;;;;;4955527;29;20078;-74
2021/03/14 07:16:52;;;;;;;;;;;7.70;99.90;;;;;;4954715;29;20393;-74
2021/03/14 07:19:27;;;;;;;59.33;35.70;;;8.40;99.90;;;;;;4955173;29;20001;-77
2021/03/14 07:22:08;;;;;;;91.68;49.92;;;9.30;99.90;;;;;;4954613;29;20500;-77
2021/03/14 07:24:36;;;;;;;55.70;35.70;;;9.70;99.90;;;;;;4955004;28;20110;-76
2021/03/14 07:27:04;;;;;;;46.20;29.10;;;9.90;99.90;;;;;;4956464;28;20050;-75
2021/03/14 07:29:34;;;;;;;59.13;36.95;;;10.00;99.90;;;;;;4957218;28;20023;-74
2021/03/14 07:32:01;;;;;;;45.05;25.50;;;9.40;99.90;;;;;;4953610;29;20489;-75
2021/03/14 07:34:28;;;;;;;43.95;24.65;;;9.10;99.90;;;;;;4949559;28;20215;-76
2021/03/14 07:36:54;;;;;;;34.17;23.50;;;9.00;99.90;;;;;;4952421;28;20023;-77
2021/03/14 07:39:20;;;;;;;35.80;22.55;;;8.90;99.90;;;;;;4950852;28;20028;-77
2021/03/14 07:41:47;;;;;;;35.22;22.00;;;8.80;99.90;;;;;;4952644;29;20062;-77
2021/03/14 07:44:16;;;;;;;32.78;20.42;;;8.30;99.90;;;;;;4971403;28;20039;-76
2021/03/14 07:46:43;;;;;;;31.73;19.95;;;8.20;99.90;;;;;;4970257;28;20037;-77
2021/03/14 07:49:12;;;;;;;29.73;19.23;;;8.00;99.90;;;;;;4960435;28;20043;-75
2021/03/14 07:51:41;;;;;;;31.10;20.75;;;8.00;99.90;;;;;;4953283;29;20118;-76
2021/03/14 07:54:09;;;;;;;28.63;19.50;;;8.10;99.90;;;;;;4952492;29;20093;-76
2021/03/14 07:56:39;;;;;;;29.05;19.70;;;8.00;99.90;;;;;;4951739;29;20034;-77
2021/03/14 07:59:06;;;;;;;27.77;19.53;;;8.20;99.90;;;;;;4951305;29;20094;-75
2021/03/14 08:01:37;;;;;;;26.85;17.45;;;8.40;99.90;;;;;;4953088;28;20390;-75
2021/03/14 08:04:23;;;;;;;26.42;18.30;;;8.60;99.90;;;;;;4960555;28;20081;-75
2021/03/14 08:06:50;;;;;;;28.80;18.67;;;8.70;99.90;;;;;;4969921;28;20023;-75
2021/03/14 08:09:52;;;;;;;29.70;19.58;;;9.20;99.90;;;;;;4972147;28;20051;-75
2021/03/14 08:12:22;;;;;;;29.58;20.50;;;9.50;99.90;;;;;;4872499;29;20096;-77
2021/03/14 08:14:54;;;;;;;32.97;21.10;;;9.80;99.90;;;;;;4955382;28;20049;-77
2021/03/14 08:17:22;;;;;;;32.03;21.42;;;10.20;99.90;;;;;;4973063;28;20053;-76
2021/03/14 08:19:50;;;;;;;31.90;21.48;;;10.60;99.90;;;;;;4956525;28;20086;-76
2021/03/14 08:22:38;;;;;;;32.85;21.13;;;10.80;99.90;;;;;;4951633;29;20038;-76
2021/03/14 08:25:19;;;;;;;35.90;21.05;;;11.30;99.90;;;;;;4950342;29;20031;-76
2021/03/14 08:27:46;;;;;;;31.38;21.20;;;11.70;99.90;;;;;;4952746;29;20819;-74
2021/03/14 08:30:34;;;;;;;31.50;21.42;;;11.90;99.90;;;;;;4953392;29;20031;-78
2021/03/14 08:33:23;;;;;;;34.40;20.80;;;12.20;99.90;;;;;;4951911;28;20050;-77
2021/03/14 08:35:51;;;;;;;29.30;19.35;;;12.30;99.90;;;;;;4963562;28;20031;-77
2021/03/14 08:38:46;;;;;;;28.52;18.33;;;12.30;99.90;;;;;;4955689;28;20358;-76
2021/03/14 08:41:25;;;;;;;29.98;17.83;;;12.80;99.70;;;;;;4952312;29;20040;-77
2021/03/14 08:44:05;;;;;;;27.58;17.75;;;13.20;99.20;;;;;;4950896;29;20031;-76
2021/03/14 08:46:49;;;;;;;23.45;15.38;;;13.50;98.70;;;;;;4949301;29;20488;-77
2021/03/14 08:49:17;;;;;;;21.92;14.98;;;12.90;99.30;;;;;;4960323;28;20113;-75
2021/03/14 08:51:43;;;;;;;23.48;15.05;;;13.30;99.70;;;;;;4971279;28;20125;-76
2021/03/14 08:54:09;;;;;;;22.58;15.65;;;13.40;99.00;;;;;;4970518;28;20105;-77
2021/03/14 08:56:36;;;;;;;24.73;16.85;;;13.40;99.30;;;;;;4952991;28;20031;-76
2021/03/14 08:59:13;;;;;;;26.13;16.80;;;13.80;98.10;;;;;;4968174;28;20077;-75
2021/03/14 09:01:39;;;;;;;26.00;17.20;;;13.50;97.90;;;;;;4970616;28;20023;-75
2021/03/14 09:04:34;;;;;;;35.08;21.98;;;13.70;98.30;;;;;;4967696;28;20552;-76
2021/03/14 09:07:05;;;;;;;36.35;24.08;;;14.70;97.30;;;;;;4968446;28;20027;-77
2021/03/14 09:09:31;;;;;;;52.67;34.67;;;15.20;95.30;;;;;;4967120;28;20133;-76
2021/03/14 09:12:03;;;;;;;23.65;16.65;;;15.10;94.90;;;;;;4968379;28;20027;-77
2021/03/14 09:14:48;;;;;;;23.83;16.42;;;14.60;95.20;;;;;;4950281;29;20055;-74
2021/03/14 09:17:19;;;;;;;24.90;17.77;;;14.90;94.80;;;;;;4950947;29;20093;-74
2021/03/14 09:19:50;;;;;;;23.88;16.45;;;15.30;94.70;;;;;;4951953;28;20046;-77
2021/03/14 09:22:22;;;;;;;25.83;16.27;;;15.50;92.60;;;;;;4952380;29;20408;-76
2021/03/14 09:24:55;;;;;;;23.52;17.02;;;15.00;93.60;;;;;;4953762;29;20397;-76
2021/03/14 09:27:26;;;;;;;24.08;15.73;;;15.20;93.40;;;;;;4943275;28;20027;-75
2021/03/14 09:30:01;;;;;;;21.95;15.70;;;14.60;93.90;;;;;;4974813;28;20513;-76
2021/03/14 09:32:26;;;;;;;25.52;17.55;;;14.70;94.10;;;;;;4954379;28;20042;-76
2021/03/14 09:35:10;;;;;;;22.73;16.42;;;14.70;94.30;;;;;;4965083;28;20052;-76
2021/03/14 09:37:37;;;;;;;23.58;16.55;;;15.40;92.90;;;;;;4966331;28;20059;-74
2021/03/14 09:40:06;;;;;;;24.92;17.20;;;15.10;92.50;;;;;;4954588;29;20381;-76
2021/03/14 09:42:32;;;;;;;28.02;18.73;;;15.00;93.20;;;;;;4956005;29;20039;-76
2021/03/14 09:45:04;;;;;;;26.30;18.50;;;15.00;93.40;;;;;;4955710;29;20449;-78
2021/03/14 09:47:30;;;;;;;27.45;18.10;;;15.50;93.10;;;;;;4956632;29;20112;-77
2021/03/14 09:50:08;;;;;;;23.20;17.17;;;15.80;92.00;;;;;;4956487;29;20390;-77
2021/03/14 09:52:35;;;;;;;22.00;16.52;;;15.50;92.20;;;;;;4939565;29;20031;-77
2021/03/14 09:55:01;;;;;;;25.15;16.58;;;15.70;92.60;;;;;;4961929;28;20035;-75
2021/03/14 09:57:27;;;;;;;21.63;14.90;;;16.10;92.30;;;;;;4967500;28;20073;-76
2021/03/14 09:59:56;;;;;;;23.38;15.50;;;16.30;90.40;;;;;;4969503;28;20038;-76
2021/03/14 10:02:23;;;;;;;26.25;17.70;;;16.50;89.90;;;;;;4964224;28;20187;-79
2021/03/14 10:04:50;;;;;;;22.15;15.77;;;16.70;86.70;;;;;;4963672;28;20049;-75
2021/03/14 10:07:23;;;;;;;37.33;25.77;;;16.90;86.00;;;;;;4963579;28;20090;-75
2021/03/14 10:09:49;;;;;;;31.38;22.88;;;17.70;86.40;;;;;;4963052;28;20371;-78
2021/03/14 10:12:16;;;;;;;30.90;21.75;;;17.80;80.70;;;;;;4968565;28;20431;-76
2021/03/14 10:14:42;;;;;;;20.30;13.23;;;17.70;79.40;;;;;;4961005;28;20421;-78
2021/03/14 10:17:11;;;;;;;18.55;11.90;;;17.40;78.30;;;;;;4956065;29;20435;-76
2021/03/14 10:19:37;;;;;;;19.00;13.63;;;16.60;81.00;;;;;;4956126;29;20039;-79
2021/03/14 10:22:03;;;;;;;15.45;12.18;;;16.60;82.30;;;;;;4955971;29;20047;-78
2021/03/14 10:24:31;;;;;;;16.83;11.18;;;17.00;81.00;;;;;;4955496;29;20358;-78
2021/03/14 10:27:02;;;;;;;18.83;11.65;;;17.60;77.60;;;;;;4968577;28;20472;-76
2021/03/14 10:29:40;;;;;;;19.33;10.85;;;17.70;76.00;;;;;;4974412;28;20019;-76
2021/03/14 10:32:21;;;;;;;16.77;11.70;;;17.30;74.50;;;;;;4974952;28;20061;-77
2021/03/14 10:34:52;;;;;;;13.27;9.70;;;17.80;73.60;;;;;;4957029;28;20035;-76
2021/03/14 10:37:29;;;;;;;12.77;8.25;;;17.40;71.00;;;;;;4970207;28;20106;-76
2021/03/14 10:40:03;;;;;;;15.60;10.50;;;17.30;70.40;;;;;;4937883;29;20042;-78
2021/03/14 10:42:34;;;;;;;19.30;10.10;;;18.00;72.70;;;;;;4964187;28;20074;-79
2021/03/14 10:45:05;;;;;;;16.63;9.75;;;18.50;70.00;;;;;;4973735;28;20078;-77
2021/03/14 10:47:31;;;;;;;17.45;10.23;;;18.80;67.60;;;;;;4974730;28;20019;-78
2021/03/14 10:50:12;;;;;;;13.75;8.80;;;19.50;69.50;;;;;;4972680;28;20051;-78
2021/03/14 10:52:38;;;;;;;16.83;11.50;;;20.50;63.10;;;;;;4974742;28;20102;-77
2021/03/14 10:55:24;;;;;;;17.42;10.63;;;19.80;60.90;;;;;;4973856;28;20061;-78
2021/03/14 10:57:50;;;;;;;15.02;10.23;;;19.80;61.30;;;;;;4956895;28;20489;-78
2021/03/14 11:00:20;;;;;;;17.75;12.35;;;19.60;61.00;;;;;;4972099;28;20078;-77
2021/03/14 11:02:49;;;;;;;38.65;27.27;;;19.50;60.60;;;;;;4970821;28;20036;-78
2021/03/14 11:05:20;;;;;;;14.77;9.38;;;20.20;60.80;;;;;;4970465;28;20038;-76
2021/03/14 11:07:57;;;;;;;18.08;11.65;;;20.00;60.80;;;;;;4974256;28;20031;-78
2021/03/14 11:10:26;;;;;;;18.70;11.35;;;20.60;61.50;;;;;;4973433;28;20027;-80
2021/03/14 11:12:52;;;;;;;16.73;9.13;;;20.90;60.90;;;;;;4974508;28;20031;-76
2021/03/14 11:15:44;;;;;;;16.35;9.30;;;21.50;58.90;;;;;;4973955;28;20023;-75
2021/03/14 11:18:20;;;;;;;12.65;6.20;;;21.80;56.90;;;;;;4974364;28;20042;-79
2021/03/14 11:20:46;;;;;;;23.73;8.98;;;21.10;55.80;;;;;;4973511;28;20097;-75
2021/03/14 11:23:12;;;;;;;16.48;8.88;;;21.70;58.20;;;;;;4974337;28;20114;-76
2021/03/14 11:25:38;;;;;;;13.35;7.00;;;22.20;56.10;;;;;;4974292;28;20033;-77
2021/03/14 11:28:08;;;;;;;13.90;7.43;;;22.40;55.80;;;;;;4974561;28;20478;-76
2021/03/14 11:30:35;;;;;;;;;;;22.00;55.50;;;;;;4974007;28;20049;-79
2021/03/14 11:33:01;;;;;;;16.50;6.93;;;21.90;55.70;;;;;;4974840;28;19914;-81
2021/03/14 11:35:27;;;;;;;12.93;6.63;;;21.60;56.60;;;;;;4974221;28;20034;-79
2021/03/14 11:37:53;;;;;;;10.90;6.57;;;22.30;56.20;;;;;;4974647;28;20027;-80
2021/03/14 11:40:18;;;;;;;11.63;5.78;;;22.80;55.60;;;;;;4974369;28;20432;-81
2021/03/14 11:42:47;;;;;;;7.95;5.47;;;22.20;52.50;;;;;;4973865;28;20484;-79
2021/03/14 11:45:14;;;;;;;10.90;6.10;;;21.30;53.40;;;;;;4974594;28;20046;-78
2021/03/14 11:47:41;;;;;;;10.55;4.90;;;21.40;54.70;;;;;;4973365;28;20026;-82
2021/03/14 11:50:07;;;;;;;8.27;4.95;;;21.70;53.50;;;;;;4973950;28;20041;-80
2021/03/14 11:52:33;;;;;;;8.68;5.20;;;21.50;52.80;;;;;;4973027;28;20030;-77
2021/03/14 11:54:59;;;;;;;8.82;5.05;;;21.60;53.80;;;;;;4974035;28;20038;-82
2021/03/14 11:57:24;;;;;;;9.30;4.55;;;21.10;55.20;;;;;;4974341;28;20030;-77
2021/03/14 11:59:51;;;;;;;11.38;4.90;;;21.90;54.40;;;;;;4972712;28;20022;-76
2021/03/14 12:02:17;;;;;;;7.93;5.10;;;22.00;52.90;;;;;;4973882;28;20345;-80
2021/03/14 12:04:43;;;;;;;8.93;5.20;;;21.80;53.60;;;;;;4956864;28;20030;-80
2021/03/14 12:07:09;;;;;;;9.20;5.20;;;21.90;53.80;;;;;;4973839;28;20085;-81
2021/03/14 12:09:34;;;;;;;12.35;4.78;;;21.40;55.00;;;;;;4973801;28;20481;-81
2021/03/14 12:12:02;;;;;;;8.07;4.63;;;21.60;55.20;;;;;;4974013;28;20023;-81
2021/03/14 12:14:28;;;;;;;9.70;5.57;;;21.30;55.40;;;;;;4972516;28;20033;-82
2021/03/14 12:16:54;;;;;;;8.38;5.47;;;22.30;55.60;;;;;;4972630;28;20031;-80
2021/03/14 12:19:20;;;;;;;9.30;5.78;;;23.00;54.20;;;;;;4973524;28;20042;-80
2021/03/14 12:21:45;;;;;;;9.32;4.82;;;23.40;53.10;;;;;;4973827;28;20113;-77
2021/03/14 12:24:11;;;;;;;11.15;4.13;;;22.90;52.10;;;;;;4974330;28;20480;-81
2021/03/14 12:26:37;;;;;;;8.20;4.68;;;23.30;51.00;;;;;;4974371;28;20031;-82
2021/03/14 12:29:04;;;;;;;7.78;4.68;;;23.70;51.30;;;;;;4972059;28;20488;-81
2021/03/14 12:31:30;;;;;;;5.95;3.50;;;23.50;50.60;;;;;;4973124;28;20038;-83
2021/03/14 12:33:55;;;;;;;6.72;3.80;;;22.80;49.20;;;;;;4974524;28;20035;-79
2021/03/14 12:36:21;;;;;;;7.50;4.00;;;22.70;49.80;;;;;;4974117;28;20023;-77
2021/03/14 12:38:47;;;;;;;7.38;4.45;;;22.30;51.00;;;;;;4973853;28;20042;-80
2021/03/14 12:41:13;;;;;;;6.60;3.97;;;22.40;52.40;;;;;;4972441;28;20058;-82
2021/03/14 12:43:40;;;;;;;7.28;4.35;;;22.60;50.20;;;;;;4974011;28;20057;-76
2021/03/14 12:46:06;;;;;;;6.05;3.63;;;22.50;51.10;;;;;;4973654;28;20019;-77